Time;durP1;ratioP1;P1;durP2;ratioP2;P2;SDS_P1;SDS_P2;PMS_P1;PMS_P2;Temp;Humidity;BMP_temperature;BMP_pressure;BME280_temperature;BME280_humidity;BME280_pressure;Samples;Min_cycle;Max_cycle;Signal;HPM_P1;HPM_P2
2023/08/11 00:00:35;;;;;;;42.03;23.60;;;;;;;24.97;85.79;99877.41;1793411;79;21295;-77
2023/08/11 00:03:43;;;;;;;33.95;22.60;;;;;;;24.95;85.64;99869.88;1800859;79;21648;-77
2023/08/11 00:06:51;;;;;;;39.30;22.27;;;;;;;24.87;85.78;99860.09;1800941;79;21902;-77
2023/08/11 00:09:57;;;;;;;38.78;23.02;;;;;;;24.79;85.99;99854.22;1798830;79;21884;-77
2023/08/11 00:13:13;;;;;;;39.90;25.15;;;;;;;24.97;85.21;99845.23;1859679;76;28636;-77
2023/08/11 00:16:18;;;;;;;34.58;21.60;;;;;;;25.10;84.21;99839.09;1747402;82;21307;-76
2023/08/11 00:19:24;;;;;;;29.48;21.45;;;;;;;25.08;84.19;99853.08;1745407;82;21315;-76
2023/08/11 00:22:30;;;;;;;33.42;22.65;;;;;;;24.97;84.56;99860.06;1751673;82;21952;-77
2023/08/11 00:25:35;;;;;;;38.45;22.75;;;;;;;24.92;84.83;99860.08;1752742;82;21319;-77
2023/08/11 00:28:41;;;;;;;35.70;22.27;;;;;;;24.98;84.25;99851.97;1783805;79;21316;-76
2023/08/11 00:31:47;;;;;;;32.65;22.00;;;;;;;25.01;84.28;99853.35;1779535;80;21334;-76
2023/08/11 00:34:53;;;;;;;37.48;21.60;;;;;;;24.87;84.63;99858.69;1776319;80;21339;-76
2023/08/11 00:37:59;;;;;;;39.73;23.30;;;;;;;24.92;84.39;99845.25;1778933;80;21346;-76
2023/08/11 00:40:59;;;;;;;31.33;23.20;;;;;;;24.90;84.65;99855.34;1748993;82;21354;-77
2023/08/11 00:44:04;;;;;;;32.83;21.20;;;;;;;25.10;83.60;99848.05;1772141;80;21321;-76
2023/08/11 00:47:10;;;;;;;31.70;19.82;;;;;;;25.06;83.65;99853.91;1733466;82;21313;-76
2023/08/11 00:50:18;;;;;;;31.20;19.95;;;;;;;25.03;83.75;99853.06;1733596;82;21326;-76
2023/08/11 00:53:24;;;;;;;25.97;18.23;;;;;;;24.77;84.79;99857.87;1732172;82;21357;-76
2023/08/11 00:56:30;;;;;;;28.75;19.95;;;;;;;24.82;85.03;99856.46;1733371;82;22639;-76
2023/08/11 00:59:35;;;;;;;30.23;21.02;;;;;;;24.60;86.10;99848.36;1731912;81;21314;-76
2023/08/11 01:02:42;;;;;;;33.23;20.77;;;;;;;24.86;85.25;99838.83;1731999;82;21314;-77
2023/08/11 01:05:51;;;;;;;41.10;20.10;;;;;;;24.97;84.60;99836.84;1734455;82;21298;-77
2023/08/11 01:09:11;;;;;;;30.32;19.10;;;;;;;25.38;82.81;99830.61;1733715;82;21932;-77
2023/08/11 01:12:48;;;;;;;41.42;19.48;;;;;;;25.21;83.30;99827.30;1728515;82;21334;-75
2023/08/11 01:16:01;;;;;;;37.15;20.72;;;;;;;25.32;82.39;99825.33;1738052;82;21319;-77
2023/08/11 01:19:07;;;;;;;42.43;20.60;;;;;;;25.28;82.55;99827.02;1739853;82;21875;-77
2023/08/11 01:22:21;;;;;;;28.10;19.35;;;;;;;25.05;83.79;99827.05;1738512;82;21934;-77
2023/08/11 01:25:27;;;;;;;37.48;19.90;;;;;;;25.06;83.98;99822.56;1738129;82;21863;-77
2023/08/11 01:28:32;;;;;;;32.50;19.92;;;;;;;25.26;83.42;99823.09;1737151;82;21366;-76
2023/08/11 01:31:40;;;;;;;29.30;19.55;;;;;;;25.38;82.75;99836.77;1737984;82;21311;-77
2023/08/11 01:34:47;;;;;;;26.25;17.02;;;;;;;25.38;82.70;99846.00;1738259;82;21366;-77
2023/08/11 01:37:55;;;;;;;30.08;16.05;;;;;;;25.56;82.06;99847.34;1737664;82;21338;-77
2023/08/11 01:41:01;;;;;;;27.85;16.60;;;;;;;25.57;82.03;99857.41;1738428;82;21877;-77
2023/08/11 01:44:07;;;;;;;23.35;13.58;;;;;;;25.35;82.98;99853.56;1736857;82;21342;-76
2023/08/11 01:47:12;;;;;;;16.30;11.57;;;;;;;25.56;82.21;99858.55;1738108;82;21358;-76
2023/08/11 01:50:20;;;;;;;20.32;11.38;;;;;;;25.48;82.46;99861.92;1710599;82;21303;-76
2023/08/11 01:53:27;;;;;;;16.25;10.05;;;;;;;25.40;83.25;99860.55;1737272;82;21382;-75
2023/08/11 01:56:34;;;;;;;16.73;11.05;;;;;;;25.47;82.98;99845.69;1737930;82;21867;-75
2023/08/11 01:59:41;;;;;;;19.00;9.78;;;;;;;25.38;83.35;99830.61;1737217;82;21324;-77
2023/08/11 02:02:48;;;;;;;15.20;9.15;;;;;;;25.70;82.13;99823.19;1736268;82;21316;-77
2023/08/11 02:05:58;;;;;;;19.07;9.85;;;;;;;25.85;81.29;99840.50;1736785;82;21323;-77
2023/08/11 02:09:12;;;;;;;17.60;8.68;;;;;;;25.77;81.33;99831.86;1736575;82;21894;-77
2023/08/11 02:12:18;;;;;;;13.30;9.15;;;;;;;25.48;82.72;99831.97;1711549;84;21292;-77
2023/08/11 02:15:23;;;;;;;15.75;9.08;;;;;;;25.91;81.38;99844.11;1733187;82;21286;-77
2023/08/11 02:18:30;;;;;;;23.50;9.75;;;;;;;26.07;80.32;99851.31;1769826;81;21316;-77
2023/08/11 02:21:38;;;;;;;16.42;10.03;;;;;;;25.89;81.15;99859.81;1769722;81;21898;-77
2023/08/11 02:24:43;;;;;;;24.07;11.30;;;;;;;25.69;82.02;99880.34;1768080;81;21333;-78
2023/08/11 02:27:49;;;;;;;18.62;10.72;;;;;;;25.63;82.60;99846.45;1769694;81;21843;-78
2023/08/11 02:30:55;;;;;;;15.58;9.35;;;;;;;25.81;81.95;99852.00;1769289;81;21308;-77
2023/08/11 02:34:03;;;;;;;19.85;10.53;;;;;;;25.76;82.04;99838.03;1768545;81;21324;-77
2023/08/11 02:37:10;;;;;;;16.62;9.90;;;;;;;25.54;82.33;99832.77;1769057;81;21346;-77
2023/08/11 02:40:19;;;;;;;14.63;11.20;;;;;;;25.39;83.27;99832.84;1769289;81;21930;-77
2023/08/11 02:43:27;;;;;;;12.70;9.73;;;;;;;25.32;83.13;99829.53;1769122;81;21922;-77
2023/08/11 02:46:31;;;;;;;18.05;11.40;;;;;;;25.37;83.43;99823.91;1769493;81;21292;-77
2023/08/11 02:49:39;;;;;;;19.80;12.13;;;;;;;25.27;83.80;99819.75;1769578;81;21289;-76
2023/08/11 02:52:46;;;;;;;20.23;11.08;;;;;;;25.28;83.89;99822.82;1768149;81;21312;-76
2023/08/11 02:55:52;;;;;;;25.95;12.23;;;;;;;25.41;83.28;99830.05;1769532;81;21307;-77
2023/08/11 02:58:58;;;;;;;20.77;11.68;;;;;;;25.25;84.30;99841.01;1773815;79;21404;-76
2023/08/11 03:02:04;;;;;;;19.37;11.78;;;;;;;25.58;83.14;99863.28;1800944;79;21299;-77
2023/08/11 03:05:11;;;;;;;21.60;12.10;;;;;;;25.45;83.72;99868.95;1799487;79;21299;-77
2023/08/11 03:08:19;;;;;;;20.25;11.00;;;;;;;25.10;85.60;99862.88;1800539;79;21823;-77
2023/08/11 03:11:24;;;;;;;26.60;12.45;;;;;;;25.68;83.33;99835.23;1800898;79;21316;-77
2023/08/11 03:14:29;;;;;;;21.00;12.60;;;;;;;25.77;83.20;99838.87;1799374;79;21315;-77
2023/08/11 03:17:35;;;;;;;19.40;12.25;;;;;;;25.57;84.12;99821.58;1793690;80;21296;-76
2023/08/11 03:20:41;;;;;;;21.85;13.93;;;;;;;25.66;83.77;99842.26;1793854;80;21311;-77
2023/08/11 03:23:47;;;;;;;21.50;14.35;;;;;;;25.91;82.95;99858.95;1793812;80;21719;-77
2023/08/11 03:26:53;;;;;;;24.85;13.22;;;;;;;25.86;83.27;99862.34;1793774;80;21288;-77
2023/08/11 03:29:59;;;;;;;19.48;12.90;;;;;;;26.00;83.21;99881.03;1775279;80;21316;-77
2023/08/11 03:33:04;;;;;;;18.87;12.70;;;;;;;26.79;79.88;99888.66;1760923;81;21629;-77
2023/08/11 03:36:14;;;;;;;24.37;12.95;;;;;;;26.54;80.35;99898.09;1760969;81;21329;-77
2023/08/11 03:39:20;;;;;;;22.07;13.00;;;;;;;26.61;79.99;99899.45;1762142;81;22213;-77
2023/08/11 03:42:26;;;;;;;17.07;13.35;;;;;;;26.74;79.38;99902.98;1762528;81;21294;-77
2023/08/11 03:45:32;;;;;;;23.87;13.40;;;;;;;26.93;78.43;99904.51;1761117;81;21333;-77
2023/08/11 03:48:38;;;;;;;17.25;12.90;;;;;;;26.75;78.64;99916.45;1762397;81;21615;-78
2023/08/11 03:51:45;;;;;;;19.67;12.95;;;;;;;26.61;79.57;99916.84;1762453;81;21336;-77
2023/08/11 03:54:52;;;;;;;19.92;13.50;;;;;;;26.74;79.01;99904.96;1762000;81;21340;-77
2023/08/11 03:57:57;;;;;;;23.25;13.05;;;;;;;26.47;79.96;99892.82;1762475;81;22509;-77
2023/08/11 04:01:04;;;;;;;20.10;12.73;;;;;;;26.59;79.68;99881.25;1761237;80;21902;-77
2023/08/11 04:04:10;;;;;;;16.93;12.95;;;;;;;26.70;79.00;99886.47;1762226;81;21309;-77
2023/08/11 04:07:16;;;;;;;19.80;12.78;;;;;;;25.91;81.86;99874.92;1762295;81;21285;-77
2023/08/11 04:10:26;;;;;;;23.70;13.48;;;;;;;25.91;82.64;99876.33;1762249;81;21302;-77
2023/08/11 04:13:32;;;;;;;19.25;14.10;;;;;;;25.75;83.74;99882.55;1763015;81;21294;-77
2023/08/11 04:16:37;;;;;;;21.70;13.43;;;;;;;26.01;82.92;99869.27;1765118;81;21723;-77
2023/08/11 04:19:43;;;;;;;24.43;14.43;;;;;;;26.01;82.61;99855.25;1767346;81;21316;-77
2023/08/11 04:22:50;;;;;;;24.65;14.05;;;;;;;26.05;82.76;99853.55;1767596;81;21329;-76
2023/08/11 04:25:58;;;;;;;24.05;13.28;;;;;;;25.62;84.42;99848.98;1766658;81;21348;-76
2023/08/11 04:29:03;;;;;;;25.02;14.87;;;;;;;25.83;84.08;99853.11;1767397;81;21297;-76
2023/08/11 04:32:10;;;;;;;19.57;13.22;;;;;;;25.95;83.38;99848.01;1765930;81;21578;-76
2023/08/11 04:35:16;;;;;;;25.00;14.90;;;;;;;26.17;82.67;99852.64;1767317;81;21332;-76
2023/08/11 04:38:22;;;;;;;20.52;13.62;;;;;;;26.25;82.07;99857.64;1766808;81;21356;-76
2023/08/11 04:41:27;;;;;;;21.77;14.80;;;;;;;26.27;82.14;99856.50;1767684;81;21667;-76
2023/08/11 04:44:34;;;;;;;20.57;14.07;;;;;;;26.40;81.16;99860.05;1767896;81;21302;-76
2023/08/11 04:47:44;;;;;;;21.50;14.18;;;;;;;26.42;80.62;99856.37;1767743;81;21749;-76
2023/08/11 04:50:51;;;;;;;21.62;14.18;;;;;;;26.44;80.55;99847.13;1767421;81;21935;-76
2023/08/11 04:54:00;;;;;;;19.82;13.25;;;;;;;26.48;79.92;99835.03;1746555;81;21289;-76
2023/08/11 04:57:06;;;;;;;19.17;14.30;;;;;;;26.68;79.84;99839.66;1766261;81;21258;-77
2023/08/11 05:00:16;;;;;;;18.32;13.45;;;;;;;26.96;78.59;99839.92;1765910;81;21297;-78
2023/08/11 05:03:22;;;;;;;19.73;13.40;;;;;;;27.13;78.13;99848.77;1746358;81;21309;-77
2023/08/11 05:06:28;;;;;;;25.15;14.07;;;;;;;27.31;77.28;99845.77;1766526;81;21892;-77
2023/08/11 05:09:38;;;;;;;23.30;13.62;;;;;;;27.25;76.89;99844.16;1768116;81;21902;-77
2023/08/11 05:12:43;;;;;;;21.33;13.83;;;;;;;27.28;76.88;99843.55;1773976;79;21613;-78
2023/08/11 05:15:49;;;;;;;22.48;13.22;;;;;;;27.33;76.79;99849.09;1767598;80;21881;-77
2023/08/11 05:18:55;;;;;;;17.10;12.50;;;;;;;27.50;75.77;99838.23;1746032;82;21331;-77
2023/08/11 05:22:01;;;;;;;16.25;11.73;;;;;;;27.36;75.90;99829.42;1745942;82;21311;-77
2023/08/11 05:25:07;;;;;;;19.32;13.28;;;;;;;27.42;75.19;99818.39;1751794;80;21925;-77
2023/08/11 05:28:12;;;;;;;25.55;12.53;;;;;;;27.45;75.35;99813.59;1776367;80;21300;-78
2023/08/11 05:31:18;;;;;;;22.25;13.88;;;;;;;27.45;75.42;99800.95;1775863;80;21327;-77
2023/08/11 05:34:24;;;;;;;18.80;11.85;;;;;;;27.67;74.41;99802.63;1776270;80;21307;-77
2023/08/11 05:37:31;;;;;;;18.70;12.15;;;;;;;27.85;73.54;99798.16;1775135;80;21350;-77
2023/08/11 05:40:37;;;;;;;21.50;13.55;;;;;;;27.99;72.38;99799.65;1774891;80;21350;-77
2023/08/11 05:43:44;;;;;;;17.52;11.48;;;;;;;28.00;72.29;99802.17;1772994;80;21865;-77
2023/08/11 05:46:50;;;;;;;19.87;12.95;;;;;;;28.01;72.67;99811.44;1745121;80;22868;-76
2023/08/11 05:49:56;;;;;;;25.15;12.82;;;;;;;28.14;71.75;99830.94;1745344;82;21999;-77
2023/08/11 05:53:03;;;;;;;17.45;12.25;;;;;;;28.14;70.93;99830.94;1759313;80;21299;-76
2023/08/11 05:56:10;;;;;;;19.62;13.70;;;;;;;27.87;72.10;99831.61;1762300;80;21387;-78
2023/08/11 05:59:16;;;;;;;17.80;12.15;;;;;;;28.02;71.82;99837.00;1747911;80;21884;-77
2023/08/11 06:02:23;;;;;;;29.70;12.58;;;;;;;27.78;72.62;99829.20;1748490;80;21822;-77
2023/08/11 06:05:29;;;;;;;22.25;12.45;;;;;;;27.66;72.97;99826.21;1759321;80;21303;-78
2023/08/11 06:08:36;;;;;;;17.35;10.58;;;;;;;27.51;73.58;99832.03;1756710;80;21766;-78
2023/08/11 06:11:42;;;;;;;19.80;11.18;;;;;;;27.51;73.70;99834.27;1750822;80;21293;-77
2023/08/11 06:14:47;;;;;;;16.85;11.25;;;;;;;27.29;73.93;99830.34;1756837;80;21283;-77
2023/08/11 06:17:58;;;;;;;18.62;11.22;;;;;;;27.33;74.08;99843.48;1767167;79;22648;-78
2023/08/11 06:21:06;;;;;;;15.72;10.75;;;;;;;27.50;73.32;99834.02;1782599;79;21362;-78
2023/08/11 06:24:13;;;;;;;18.05;11.97;;;;;;;27.43;73.45;99830.75;1790750;79;21338;-77
2023/08/11 06:27:20;;;;;;;21.17;11.48;;;;;;;27.40;73.98;99822.08;1778297;79;21342;-79
2023/08/11 06:30:30;;;;;;;19.32;12.55;;;;;;;27.26;74.09;99815.77;1788563;79;22543;-77
2023/08/11 06:33:35;;;;;;;22.90;12.88;;;;;;;27.28;74.68;99809.85;1790827;79;21888;-77
2023/08/11 06:36:42;;;;;;;20.82;13.20;;;;;;;27.25;74.65;99791.65;1778303;79;21342;-77
2023/08/11 06:39:48;;;;;;;22.82;13.90;;;;;;;27.85;72.63;99780.47;1803350;79;21319;-79
2023/08/11 06:42:53;;;;;;;20.72;13.22;;;;;;;28.08;71.45;99766.07;1787350;79;21298;-79
2023/08/11 06:46:00;;;;;;;23.87;14.50;;;;;;;28.05;71.50;99761.08;1780708;79;21202;-79
2023/08/11 06:49:15;;;;;;;22.15;15.13;;;;;;;28.12;71.30;99759.53;1783078;79;21810;-77
2023/08/11 06:52:21;;;;;;;24.32;14.07;;;;;;;28.22;70.74;99754.31;1803655;79;21264;-79
2023/08/11 06:55:26;;;;;;;22.10;14.10;;;;;;;28.01;71.07;99753.25;1775528;79;21275;-78
2023/08/11 06:58:32;;;;;;;20.82;13.60;;;;;;;28.11;70.80;99764.06;1794317;79;21354;-77
2023/08/11 07:01:38;;;;;;;22.32;14.38;;;;;;;27.97;71.53;99775.23;1789149;79;21304;-78
2023/08/11 07:04:44;;;;;;;22.73;14.33;;;;;;;27.91;72.07;99782.92;1787232;79;21291;-77
2023/08/11 07:07:51;;;;;;;24.05;14.18;;;;;;;28.06;71.47;99781.84;1783984;79;21841;-78
2023/08/11 07:10:57;;;;;;;21.42;13.83;;;;;;;28.21;71.08;99792.84;1794095;79;21271;-77
2023/08/11 07:14:03;;;;;;;20.17;14.20;;;;;;;28.35;70.74;99804.75;1780369;79;21867;-78
2023/08/11 07:17:09;;;;;;;19.77;13.38;;;;;;;28.34;70.83;99803.06;1792905;79;21292;-78
2023/08/11 07:20:15;;;;;;;28.07;15.70;;;;;;;28.15;71.79;99806.72;1789368;79;21355;-78
2023/08/11 07:23:21;;;;;;;21.25;16.20;;;;;;;28.12;72.16;99800.87;1781431;79;21343;-78
2023/08/11 07:26:26;;;;;;;24.32;15.98;;;;;;;27.77;73.46;99797.46;1780716;79;21597;-77
2023/08/11 07:29:32;;;;;;;25.17;17.80;;;;;;;27.58;74.66;99786.17;1776516;79;21606;-78
2023/08/11 07:32:38;;;;;;;22.58;16.57;;;;;;;27.62;74.57;99790.05;1769771;79;22634;-78
2023/08/11 07:35:45;;;;;;;28.02;18.77;;;;;;;27.53;74.79;99796.08;1766785;81;21404;-78
2023/08/11 07:38:50;;;;;;;27.42;18.40;;;;;;;27.78;73.70;99798.30;1783642;79;21779;-79
2023/08/11 07:42:02;;;;;;;29.15;19.50;;;;;;;27.66;73.15;99779.03;1775258;79;21303;-79
2023/08/11 07:45:06;;;;;;;27.22;19.85;;;;;;;27.20;74.57;99767.86;1784730;79;21299;-79
2023/08/11 07:48:12;;;;;;;27.22;18.70;;;;;;;27.04;75.36;99759.88;1775845;79;21283;-79
2023/08/11 07:51:17;;;;;;;29.35;20.10;;;;;;;26.92;76.36;99778.55;1772947;79;21879;-79
2023/08/11 07:54:23;;;;;;;26.65;21.10;;;;;;;26.91;76.76;99771.23;1769224;79;21342;-79
2023/08/11 07:57:29;;;;;;;24.15;17.27;;;;;;;26.88;76.78;99763.43;1773844;79;21316;-78
2023/08/11 08:00:35;;;;;;;27.30;20.20;;;;;;;26.89;77.21;99763.70;1776588;79;21303;-78
2023/08/11 08:03:41;;;;;;;28.42;20.27;;;;;;;26.93;77.05;99764.20;1778234;79;21319;-80
2023/08/11 08:06:46;;;;;;;29.72;20.15;;;;;;;26.82;77.69;99767.41;1780420;79;21312;-79
2023/08/11 08:09:52;;;;;;;23.30;19.17;;;;;;;26.78;77.95;99769.16;1771608;79;21283;-79
2023/08/11 08:13:00;;;;;;;28.07;19.00;;;;;;;26.27;79.48;99790.06;1788125;79;21287;-79
2023/08/11 08:16:05;;;;;;;24.43;20.30;;;;;;;26.39;79.31;99807.89;1780852;79;21275;-79
2023/08/11 08:19:12;;;;;;;23.60;19.20;;;;;;;26.40;79.46;99806.22;1781075;79;22052;-79
2023/08/11 08:22:19;;;;;;;28.47;19.40;;;;;;;26.33;79.98;99795.89;1773434;79;21854;-79
2023/08/11 08:25:24;;;;;;;29.40;19.92;;;;;;;26.31;80.12;99800.12;1798481;79;21320;-79
2023/08/11 08:28:30;;;;;;;29.52;21.15;;;;;;;26.37;79.78;99802.59;1794496;79;21350;-78
2023/08/11 08:31:37;;;;;;;29.25;19.62;;;;;;;26.29;80.39;99815.81;1790603;79;21220;-78
2023/08/11 08:34:43;;;;;;;30.12;20.82;;;;;;;26.30;80.56;99823.66;1776219;79;21290;-77
2023/08/11 08:37:49;;;;;;;27.15;19.77;;;;;;;26.12;81.22;99831.66;1767034;81;21346;-78
2023/08/11 08:40:55;;;;;;;27.37;20.48;;;;;;;26.27;81.09;99846.13;1766665;79;21291;-77
2023/08/11 08:44:02;;;;;;;33.48;22.48;;;;;;;26.33;80.89;99866.54;1774563;79;22234;-78
2023/08/11 08:47:09;;;;;;;29.20;20.75;;;;;;;26.13;82.04;99885.17;1766487;79;21264;-78
2023/08/11 08:50:15;;;;;;;28.50;21.73;;;;;;;26.02;82.42;99915.80;1766230;81;21291;-79
2023/08/11 08:53:21;;;;;;;39.92;22.05;;;;;;;26.08;82.31;99946.86;1767399;79;21308;-78
2023/08/11 08:56:26;;;;;;;31.20;21.15;;;;;;;25.94;83.32;99959.81;1783598;79;21308;-79
2023/08/11 08:59:33;;;;;;;25.27;19.35;;;;;;;25.72;84.79;99963.77;1778306;79;21310;-78
2023/08/11 09:02:39;;;;;;;20.12;14.50;;;;;;;25.64;85.02;99948.97;1775103;79;22117;-78
2023/08/11 09:05:47;;;;;;;29.40;16.12;;;;;;;25.43;84.96;99918.77;1771999;79;21376;-78
2023/08/11 09:08:54;;;;;;;25.43;17.42;;;;;;;25.45;84.74;99900.28;1776515;79;21351;-78
2023/08/11 09:12:04;;;;;;;24.10;17.98;;;;;;;25.07;87.20;99885.81;1767517;79;21340;-78
2023/08/11 09:15:18;;;;;;;24.35;17.77;;;;;;;25.07;87.33;99878.83;1769123;79;21351;-79
2023/08/11 09:18:25;;;;;;;30.80;20.50;;;;;;;25.00;87.91;99855.87;1790614;79;21323;-78
2023/08/11 09:21:27;;;;;;;33.10;21.45;;;;;;;25.02;88.35;99834.03;1765074;79;21322;-78
2023/08/11 09:24:32;;;;;;;32.15;22.50;;;;;;;25.16;88.25;99804.37;1741398;81;21280;-79
2023/08/11 09:27:38;;;;;;;31.37;20.82;;;;;;;25.14;88.34;99782.01;1716034;83;21924;-79
2023/08/11 09:30:47;;;;;;;29.20;19.30;;;;;;;25.32;87.75;99765.16;1693308;84;21324;-79
2023/08/11 09:33:53;;;;;;;36.23;19.20;;;;;;;25.24;87.25;99751.18;1677693;85;21391;-80
2023/08/11 09:36:59;;;;;;;28.87;18.02;;;;;;;25.08;88.97;99729.44;1705695;84;21414;-80
2023/08/11 09:40:05;;;;;;;24.05;16.45;;;;;;;24.98;89.37;99715.42;1705825;83;21387;-80
2023/08/11 09:43:11;;;;;;;19.45;14.23;;;;;;;24.90;88.91;99720.23;1691137;84;22452;-80
2023/08/11 09:46:17;;;;;;;18.55;14.40;;;;;;;24.78;88.72;99740.12;1686653;84;21303;-80
2023/08/11 09:49:23;;;;;;;23.02;16.52;;;;;;;24.82;88.41;99748.22;1686354;84;21905;-80
2023/08/11 09:52:29;;;;;;;24.00;17.73;;;;;;;24.64;89.59;99764.20;1668077;86;21343;-81
2023/08/11 09:55:36;;;;;;;22.90;16.55;;;;;;;24.58;90.00;99777.92;1678835;84;21315;-80
2023/08/11 09:58:45;;;;;;;24.70;18.48;;;;;;;24.73;89.66;99796.06;1679225;85;21307;-80
2023/08/11 10:01:52;;;;;;;21.40;15.78;;;;;;;24.74;89.40;99778.98;1711335;83;21311;-80
2023/08/11 10:05:05;;;;;;;24.55;18.50;;;;;;;25.02;88.50;99763.27;1680038;84;21344;-80
2023/08/11 10:08:13;;;;;;;24.45;18.82;;;;;;;25.14;88.17;99770.81;1700435;84;21650;-80
2023/08/11 10:11:19;;;;;;;26.27;18.27;;;;;;;25.19;88.22;99749.80;1679231;84;21355;-79
2023/08/11 10:14:27;;;;;;;24.05;13.72;;;;;;;25.22;88.80;99719.30;1700320;82;21307;-80
2023/08/11 10:17:32;;;;;;;10.93;8.78;;;;;;;25.54;88.68;99699.78;1718197;82;22283;-79
2023/08/11 10:20:39;;;;;;;9.93;7.35;;;;;;;25.97;84.77;99678.50;1703830;84;21273;-79
2023/08/11 10:23:44;;;;;;;10.38;6.47;;;;;;;25.85;83.87;99659.82;1728251;80;21347;-79
2023/08/11 10:26:50;;;;;;;9.30;6.30;;;;;;;25.79;84.99;99650.37;1743230;80;21323;-78
2023/08/11 10:29:57;;;;;;;9.60;6.67;;;;;;;25.92;83.95;99631.45;1744820;82;21288;-78
2023/08/11 10:33:13;;;;;;;14.23;6.87;;;;;;;26.12;83.53;99620.07;1744909;82;21867;-79
2023/08/11 10:36:13;;;;;;;9.48;7.17;;;;;;;26.32;81.61;99594.35;1744006;80;21319;-79
2023/08/11 10:39:13;;;;;;;10.28;7.42;;;;;;;26.47;79.51;99585.22;1715430;80;21338;-78
2023/08/11 10:42:23;;;;;;;11.57;7.05;;;;;;;26.46;80.66;99572.34;1740704;81;21347;-78
2023/08/11 10:45:29;;;;;;;14.33;8.17;;;;;;;26.54;79.86;99568.59;1751921;80;21344;-78
2023/08/11 10:48:35;;;;;;;10.05;7.47;;;;;;;26.65;79.92;99575.75;1721813;82;21332;-78
2023/08/11 10:51:42;;;;;;;16.55;9.10;;;;;;;26.66;80.68;99576.84;1773655;80;21350;-78
2023/08/11 10:54:59;;;;;;;13.83;9.33;;;;;;;26.96;78.43;99585.43;1716048;82;22016;-78
2023/08/11 10:58:22;;;;;;;11.65;9.58;;;;;;;26.91;78.59;99588.85;1743375;81;21773;-78
2023/08/11 11:01:28;;;;;;;12.78;9.00;;;;;;;27.19;77.46;99585.67;1754530;81;21672;-78
2023/08/11 11:04:40;;;;;;;17.95;8.80;;;;;;;27.24;76.22;99592.61;1743793;82;21335;-78
2023/08/11 11:07:46;;;;;;;13.78;8.63;;;;;;;27.49;75.92;99582.40;1743420;82;21322;-78
2023/08/11 11:10:52;;;;;;;15.75;8.80;;;;;;;27.60;75.39;99578.84;1722572;82;21307;-78
2023/08/11 11:13:58;;;;;;;12.00;8.18;;;;;;;27.70;75.01;99612.37;1742884;80;21375;-78
2023/08/11 11:17:08;;;;;;;12.03;8.18;;;;;;;27.68;74.58;99632.92;1739300;81;22579;-77
2023/08/11 11:20:15;;;;;;;11.88;7.97;;;;;;;27.96;71.60;99622.64;1716167;82;21232;-78
2023/08/11 11:23:21;;;;;;;12.90;9.00;;;;;;;27.88;71.39;99630.37;1748536;80;21413;-78
2023/08/11 11:26:35;;;;;;;12.35;7.90;;;;;;;27.58;73.86;99645.73;1723430;81;21217;-78
2023/08/11 11:29:39;;;;;;;12.07;8.78;;;;;;;27.48;73.82;99655.16;1768208;79;21346;-78
2023/08/11 11:32:49;;;;;;;11.03;7.70;;;;;;;27.47;73.23;99670.88;1755061;81;21343;-78
2023/08/11 11:35:56;;;;;;;9.88;6.33;;;;;;;27.19;74.00;99683.34;1767050;81;21350;-78
2023/08/11 11:39:03;;;;;;;10.00;7.25;;;;;;;27.07;72.44;99700.34;1779533;79;22066;-78
2023/08/11 11:42:17;;;;;;;11.08;7.75;;;;;;;26.87;73.08;99716.30;1783452;79;21335;-78
2023/08/11 11:45:23;;;;;;;14.10;9.10;;;;;;;26.93;73.56;99731.94;1785176;79;21885;-78
2023/08/11 11:48:23;;;;;;;13.68;8.65;;;;;;;26.93;74.42;99761.97;1762373;79;21218;-78
2023/08/11 11:51:16;;;;;;;15.75;8.45;;;;;;;27.03;74.62;99773.07;1765287;79;21307;-77
2023/08/11 11:54:22;;;;;;;12.20;8.38;;;;;;;27.29;74.52;99781.20;1768116;81;22529;-77
2023/08/11 11:57:29;;;;;;;9.38;7.15;;;;;;;27.30;74.72;99794.96;1783649;80;21335;-78
2023/08/11 12:00:35;;;;;;;10.10;7.08;;;;;;;27.37;74.09;99811.44;1770647;79;21879;-78
2023/08/11 12:03:42;;;;;;;15.55;8.03;;;;;;;27.56;72.70;99822.14;1742523;81;21324;-78
2023/08/11 12:06:49;;;;;;;11.80;8.55;;;;;;;27.67;72.30;99838.31;1770519;79;21328;-77
2023/08/11 12:09:53;;;;;;;13.75;8.15;;;;;;;28.02;70.91;99832.78;1761550;79;21303;-78
2023/08/11 12:13:07;;;;;;;9.53;7.33;;;;;;;28.17;70.06;99826.92;1766928;81;22139;-78
2023/08/11 12:16:07;;;;;;;12.33;7.60;;;;;;;28.24;69.52;99835.82;1798840;79;21287;-77
2023/08/11 12:19:14;;;;;;;12.75;7.47;;;;;;;28.32;69.31;99840.47;1729474;82;21344;-78
2023/08/11 12:22:20;;;;;;;13.43;8.38;;;;;;;28.13;69.71;99846.94;1765679;81;21366;-77
2023/08/11 12:25:26;;;;;;;14.35;7.72;;;;;;;28.02;69.71;99837.00;1769819;80;21885;-78
2023/08/11 12:28:33;;;;;;;11.80;6.97;;;;;;;27.90;69.40;99839.41;1781464;80;22419;-78
2023/08/11 12:31:38;;;;;;;12.43;7.35;;;;;;;27.88;68.87;99822.86;1792633;80;21874;-78
2023/08/11 12:34:43;;;;;;;9.40;6.87;;;;;;;27.58;70.80;99801.63;1792254;80;21328;-78
2023/08/11 12:37:49;;;;;;;10.98;6.97;;;;;;;27.67;70.08;99780.15;1792085;80;21359;-78
2023/08/11 12:40:55;;;;;;;7.40;6.30;;;;;;;27.85;69.00;99792.55;1792906;80;21506;-77
2023/08/11 12:44:01;;;;;;;9.33;6.00;;;;;;;27.93;68.15;99791.88;1789916;80;21334;-78
2023/08/11 12:47:07;;;;;;;7.42;5.92;;;;;;;28.24;66.57;99821.77;1780719;80;22642;-78
2023/08/11 12:50:14;;;;;;;9.25;5.75;;;;;;;28.38;66.50;99830.87;1780557;80;21299;-78
2023/08/11 12:53:20;;;;;;;9.10;6.45;;;;;;;28.45;65.93;99825.67;1781484;80;21890;-78
2023/08/11 12:56:25;;;;;;;11.12;6.90;;;;;;;28.58;65.17;99822.08;1781920;80;21291;-78
2023/08/11 12:59:31;;;;;;;8.68;5.60;;;;;;;28.62;64.93;99813.86;1774105;80;21320;-78
2023/08/11 13:02:37;;;;;;;7.03;5.50;;;;;;;28.49;64.20;99812.67;1761196;81;21388;-78
2023/08/11 13:05:43;;;;;;;11.75;6.08;;;;;;;28.52;63.90;99814.30;1761105;81;22255;-78
2023/08/11 13:08:50;;;;;;;8.38;5.58;;;;;;;28.72;63.93;99810.29;1761048;81;21329;-78
2023/08/11 13:11:56;;;;;;;10.05;5.80;;;;;;;28.37;64.89;99796.29;1760747;80;21962;-77
2023/08/11 13:15:02;;;;;;;10.95;5.75;;;;;;;28.26;65.12;99778.70;1759673;80;21383;-78
2023/08/11 13:18:07;;;;;;;6.78;5.90;;;;;;;28.35;65.04;99785.06;1760823;81;21324;-78
2023/08/11 13:21:14;;;;;;;6.80;5.50;;;;;;;28.30;65.42;99757.00;1760978;81;21330;-78
2023/08/11 13:24:20;;;;;;;7.25;5.25;;;;;;;28.30;64.30;99751.38;1774521;80;21277;-78
2023/08/11 13:27:26;;;;;;;10.13;5.22;;;;;;;28.45;63.68;99727.23;1765192;79;21388;-78
2023/08/11 13:30:33;;;;;;;7.75;4.90;;;;;;;28.63;63.11;99724.92;1764176;80;21903;-78
2023/08/11 13:33:40;;;;;;;7.95;5.65;;;;;;;28.66;63.63;99738.38;1760044;81;21337;-78
2023/08/11 13:36:46;;;;;;;7.50;5.08;;;;;;;28.62;63.65;99751.97;1759036;81;21369;-78
2023/08/11 13:39:51;;;;;;;9.00;5.40;;;;;;;28.68;62.30;99756.34;1760874;80;21314;-78
2023/08/11 13:42:56;;;;;;;8.43;5.47;;;;;;;28.72;62.92;99741.92;1760793;81;21973;-78
2023/08/11 13:46:03;;;;;;;5.05;4.55;;;;;;;28.61;63.24;99746.09;1759324;80;21956;-78
2023/08/11 13:49:09;;;;;;;7.83;5.10;;;;;;;28.42;64.24;99746.98;1760687;81;21305;-78
2023/08/11 13:52:07;;;;;;;7.87;4.92;;;;;;;28.44;63.53;99738.22;1760818;81;21360;-78
2023/08/11 13:55:12;;;;;;;6.67;4.80;;;;;;;28.43;64.06;99733.75;1759372;80;21309;-78
2023/08/11 13:58:18;;;;;;;10.20;5.05;;;;;;;28.56;63.03;99726.45;1761245;81;21686;-78
2023/08/11 14:01:24;;;;;;;7.65;4.35;;;;;;;28.61;62.77;99725.81;1759725;81;21346;-78
2023/08/11 14:04:31;;;;;;;12.20;4.87;;;;;;;28.81;61.63;99726.56;1760120;81;21341;-78
2023/08/11 14:07:37;;;;;;;8.30;5.10;;;;;;;29.03;60.97;99732.34;1759536;81;21949;-78
2023/08/11 14:10:44;;;;;;;7.85;4.67;;;;;;;29.01;61.17;99719.14;1775046;80;21319;-78
2023/08/11 14:13:50;;;;;;;8.03;5.33;;;;;;;28.95;61.07;99714.77;1790338;80;22509;-78
2023/08/11 14:16:57;;;;;;;6.37;4.70;;;;;;;28.34;63.00;99712.52;1780465;80;21334;-78
2023/08/11 14:20:03;;;;;;;7.65;4.80;;;;;;;28.37;62.58;99701.21;1782000;80;21909;-78
2023/08/11 14:23:08;;;;;;;9.90;6.03;;;;;;;28.19;63.42;99719.23;1783189;80;21878;-77